createdAt,value
2023-03-22T00:01:14.714Z,14.80
2023-03-22T00:03:42.680Z,14.70
2023-03-22T00:06:10.283Z,14.80
2023-03-22T00:08:37.238Z,14.70
2023-03-22T00:11:05.339Z,14.70
2023-03-22T00:13:35.459Z,14.60
2023-03-22T00:16:03.292Z,14.60
2023-03-22T00:18:30.608Z,14.60
2023-03-22T00:20:59.238Z,14.50
2023-03-22T00:23:26.751Z,14.50
2023-03-22T00:25:56.916Z,14.40
2023-03-22T00:28:24.238Z,14.40
2023-03-22T00:30:57.576Z,14.30
2023-03-22T00:33:24.721Z,14.30
2023-03-22T00:35:54.149Z,14.20
2023-03-22T00:38:27.305Z,14.10
2023-03-22T00:41:16.353Z,14.10
2023-03-22T00:43:43.750Z,14.10
2023-03-22T00:46:12.820Z,14.10
2023-03-22T00:48:39.999Z,14.10
2023-03-22T00:51:07.788Z,14.00
2023-03-22T00:53:36.679Z,14.00
2023-03-22T00:56:05.530Z,14.00
2023-03-22T00:58:32.691Z,13.90
2023-03-22T01:00:59.679Z,14.00
2023-03-22T01:03:26.515Z,14.00
2023-03-22T01:05:57.102Z,14.00
2023-03-22T01:08:24.686Z,14.00
2023-03-22T01:10:51.982Z,13.80
2023-03-22T01:13:19.271Z,13.90
2023-03-22T01:15:47.953Z,13.90
2023-03-22T01:18:14.867Z,13.80
2023-03-22T01:20:42.170Z,13.80
2023-03-22T01:23:09.033Z,13.90
2023-03-22T01:25:36.052Z,13.80
2023-03-22T01:28:02.876Z,13.70
2023-03-22T01:30:30.299Z,13.70
2023-03-22T01:32:57.347Z,13.60
2023-03-22T01:35:24.483Z,13.60
2023-03-22T01:37:51.428Z,13.60
2023-03-22T01:40:18.487Z,13.60
2023-03-22T01:42:45.375Z,13.60
2023-03-22T01:45:14.915Z,13.60
2023-03-22T01:47:48.644Z,13.50
2023-03-22T01:50:17.540Z,13.50
2023-03-22T01:52:44.910Z,13.50
2023-03-22T01:55:13.067Z,13.50
2023-03-22T01:57:41.786Z,12.90
2023-03-22T02:00:14.014Z,13.40
2023-03-22T02:02:41.550Z,13.40
2023-03-22T02:05:09.160Z,13.30
2023-03-22T02:07:38.448Z,13.30
2023-03-22T02:10:10.230Z,13.30
2023-03-22T02:12:58.090Z,13.20
2023-03-22T02:15:47.043Z,13.10
2023-03-22T02:18:32.059Z,13.20
2023-03-22T02:21:02.556Z,13.00
2023-03-22T02:23:44.349Z,13.00
2023-03-22T02:26:14.570Z,13.00
2023-03-22T02:28:49.726Z,12.90
2023-03-22T02:31:49.082Z,12.80
2023-03-22T02:34:31.003Z,12.80
2023-03-22T02:37:22.544Z,12.80
2023-03-22T02:40:05.626Z,12.80
2023-03-22T02:42:38.339Z,12.80
2023-03-22T02:45:20.281Z,12.70
2023-03-22T02:47:54.486Z,12.70
2023-03-22T02:50:30.884Z,12.70
2023-03-22T02:53:17.337Z,12.70
2023-03-22T02:56:01.542Z,12.70
2023-03-22T02:58:39.408Z,12.70
2023-03-22T03:01:11.348Z,12.70
2023-03-22T03:03:39.594Z,12.70
2023-03-22T03:06:15.124Z,12.60
2023-03-22T03:08:44.293Z,12.60
2023-03-22T03:11:11.216Z,12.60
2023-03-22T03:13:38.136Z,12.80
2023-03-22T03:16:07.867Z,12.50
2023-03-22T03:19:00.569Z,12.40
2023-03-22T03:21:36.653Z,12.40
2023-03-22T03:24:27.059Z,12.40
2023-03-22T03:27:09.646Z,12.40
2023-03-22T03:29:42.078Z,12.40
2023-03-22T03:32:35.301Z,12.30
2023-03-22T03:35:09.693Z,12.20
2023-03-22T03:37:47.177Z,12.20
2023-03-22T03:40:22.054Z,12.40
2023-03-22T03:42:51.995Z,12.20
2023-03-22T03:45:19.529Z,12.50
2023-03-22T03:47:48.229Z,12.00
2023-03-22T03:50:16.683Z,12.00
2023-03-22T03:52:43.551Z,12.00
2023-03-22T03:55:10.623Z,12.00
2023-03-22T03:57:37.414Z,12.00
2023-03-22T04:00:05.703Z,12.00
2023-03-22T04:02:32.728Z,12.00
2023-03-22T04:04:59.539Z,12.10
2023-03-22T04:07:26.428Z,12.10
2023-03-22T04:09:53.156Z,12.10
2023-03-22T04:12:19.954Z,12.00
2023-03-22T04:14:46.740Z,12.10
2023-03-22T04:17:13.488Z,11.90
2023-03-22T04:19:41.365Z,11.90
2023-03-22T04:22:14.601Z,12.70
2023-03-22T04:24:41.911Z,12.20
2023-03-22T04:27:08.903Z,11.80
2023-03-22T04:29:36.569Z,11.90
2023-03-22T04:32:03.970Z,11.70
2023-03-22T04:34:31.539Z,11.70
2023-03-22T04:37:02.509Z,11.80
2023-03-22T04:39:29.616Z,11.60
2023-03-22T04:41:56.704Z,11.70
2023-03-22T04:44:23.475Z,11.70
2023-03-22T04:46:50.500Z,11.60
2023-03-22T04:49:17.247Z,11.60
2023-03-22T04:51:44.137Z,11.60
2023-03-22T04:54:11.054Z,11.60
2023-03-22T04:56:37.891Z,11.70
2023-03-22T04:59:04.687Z,11.70
2023-03-22T05:01:31.530Z,11.80
2023-03-22T05:03:58.363Z,11.60
2023-03-22T05:06:25.503Z,11.70
2023-03-22T05:08:52.282Z,11.50
2023-03-22T05:11:24.320Z,11.50
2023-03-22T05:13:51.075Z,11.50
2023-03-22T05:16:17.997Z,11.50
2023-03-22T05:18:45.582Z,11.50
2023-03-22T05:21:15.503Z,11.50
2023-03-22T05:23:43.937Z,11.40
2023-03-22T05:26:16.706Z,11.40
2023-03-22T05:28:44.587Z,11.40
2023-03-22T05:31:15.224Z,11.40
2023-03-22T05:33:42.422Z,11.40
2023-03-22T05:36:11.259Z,11.40
2023-03-22T05:38:38.466Z,12.40
2023-03-22T05:41:05.492Z,11.30
2023-03-22T05:43:32.869Z,11.20
2023-03-22T05:45:59.639Z,11.40
2023-03-22T05:48:26.360Z,11.20
2023-03-22T05:50:53.292Z,11.20
2023-03-22T05:53:20.031Z,11.20
2023-03-22T05:55:46.850Z,11.10
2023-03-22T05:58:19.023Z,11.10
2023-03-22T06:00:49.892Z,11.00
2023-03-22T06:03:17.110Z,11.10
2023-03-22T06:05:43.902Z,11.00
2023-03-22T06:08:11.126Z,11.00
2023-03-22T06:10:38.209Z,11.00
2023-03-22T06:13:05.725Z,11.10
2023-03-22T06:15:32.532Z,10.90
2023-03-22T06:17:59.336Z,10.90
2023-03-22T06:20:26.168Z,11.10
2023-03-22T06:22:52.898Z,10.30
2023-03-22T06:25:19.630Z,11.00
2023-03-22T06:27:46.522Z,11.00
2023-03-22T06:30:13.622Z,11.20
2023-03-22T06:32:40.387Z,11.10
2023-03-22T06:35:09.398Z,11.10
2023-03-22T06:37:39.396Z,11.10
2023-03-22T06:40:06.977Z,11.00
2023-03-22T06:42:34.280Z,11.00
2023-03-22T06:45:01.243Z,11.10
2023-03-22T06:47:28.316Z,11.20
2023-03-22T06:49:55.350Z,11.80
2023-03-22T06:52:22.238Z,11.30
2023-03-22T06:54:49.014Z,11.30
2023-03-22T06:57:16.108Z,11.40
2023-03-22T06:59:42.948Z,11.40
2023-03-22T07:02:12.303Z,11.40
2023-03-22T07:04:39.307Z,11.50
2023-03-22T07:07:06.151Z,11.50
2023-03-22T07:09:32.954Z,11.50
2023-03-22T07:11:59.840Z,11.50
2023-03-22T07:14:26.667Z,11.60
2023-03-22T07:16:53.437Z,11.70
2023-03-22T07:19:20.264Z,11.80
2023-03-22T07:21:47.025Z,11.90
2023-03-22T07:24:13.936Z,12.00
2023-03-22T07:26:41.428Z,12.10
2023-03-22T07:29:08.315Z,12.30
2023-03-22T07:31:37.967Z,12.40
2023-03-22T07:34:05.474Z,12.50
2023-03-22T07:36:32.959Z,12.80
2023-03-22T07:38:59.765Z,13.00
2023-03-22T07:41:28.838Z,13.20
2023-03-22T07:44:04.920Z,13.40
2023-03-22T07:46:42.004Z,13.60
2023-03-22T07:49:09.063Z,13.80
2023-03-22T07:51:35.805Z,14.00
2023-03-22T07:54:02.700Z,14.20
2023-03-22T07:56:29.576Z,14.30
2023-03-22T07:58:56.880Z,14.40
2023-03-22T08:01:24.846Z,14.50
2023-03-22T08:03:51.867Z,14.70
2023-03-22T08:06:21.548Z,14.80
2023-03-22T08:08:48.742Z,14.90
2023-03-22T08:11:18.624Z,15.10
2023-03-22T08:13:45.630Z,15.20
2023-03-22T08:16:12.625Z,15.30
2023-03-22T08:18:39.597Z,15.40
2023-03-22T08:21:07.085Z,15.50
2023-03-22T08:23:41.537Z,15.60
2023-03-22T08:29:30.339Z,15.70
2023-03-22T08:32:02.135Z,15.80
2023-03-22T08:34:31.360Z,15.90
2023-03-22T08:37:00.684Z,16.00
2023-03-22T08:39:28.024Z,16.10
2023-03-22T08:41:54.899Z,16.20
2023-03-22T08:44:21.804Z,16.20
2023-03-22T08:46:48.597Z,16.30
2023-03-22T08:49:15.971Z,16.40
2023-03-22T08:51:42.850Z,16.40
2023-03-22T08:54:09.975Z,16.50
2023-03-22T08:56:38.060Z,16.50
2023-03-22T08:59:06.737Z,16.50
2023-03-22T09:01:34.223Z,16.60
2023-03-22T09:04:01.378Z,16.60
2023-03-22T09:06:28.297Z,16.60
2023-03-22T09:08:55.388Z,16.60
2023-03-22T09:11:23.014Z,16.50
2023-03-22T09:13:50.460Z,16.50
2023-03-22T09:16:18.578Z,16.50
2023-03-22T09:18:45.759Z,16.50
2023-03-22T09:21:12.644Z,16.50
2023-03-22T09:23:40.254Z,16.60
2023-03-22T09:26:09.110Z,16.50
2023-03-22T09:28:36.700Z,16.60
2023-03-22T09:31:06.752Z,16.60
2023-03-22T09:33:35.627Z,16.60
2023-03-22T09:36:02.560Z,16.60
2023-03-22T09:38:32.500Z,16.70
2023-03-22T09:41:03.421Z,16.70
2023-03-22T09:43:37.868Z,16.80
2023-03-22T09:46:13.097Z,16.60
2023-03-22T09:48:42.078Z,16.70
2023-03-22T09:51:37.123Z,16.70
2023-03-22T09:54:04.168Z,16.80
2023-03-22T09:59:34.589Z,16.90
2023-03-22T10:02:08.274Z,16.80
2023-03-22T10:04:50.451Z,16.80
2023-03-22T10:07:49.426Z,16.90
2023-03-22T10:10:28.799Z,16.90
2023-03-22T10:13:07.778Z,16.90
2023-03-22T10:15:44.925Z,17.00
2023-03-22T10:18:27.971Z,16.90
2023-03-22T10:21:12.716Z,16.90
2023-03-22T10:24:04.971Z,16.90
2023-03-22T10:26:41.619Z,16.90
2023-03-22T10:29:43.651Z,17.00
2023-03-22T10:32:29.262Z,17.00
2023-03-22T10:34:56.821Z,17.00
2023-03-22T10:37:35.908Z,17.10
2023-03-22T10:40:07.988Z,17.10
2023-03-22T10:42:38.280Z,17.10
2023-03-22T10:45:13.282Z,17.10
2023-03-22T10:47:57.962Z,17.20
2023-03-22T10:50:31.007Z,17.20
2023-03-22T10:53:16.556Z,17.30
2023-03-22T10:55:44.074Z,17.40
2023-03-22T10:58:14.322Z,17.40
2023-03-22T11:00:45.751Z,17.40
2023-03-22T11:03:41.155Z,17.50
2023-03-22T11:06:15.006Z,17.50
2023-03-22T11:08:53.560Z,17.60
2023-03-22T11:11:29.663Z,17.60
2023-03-22T11:14:07.411Z,17.70
2023-03-22T11:16:49.896Z,17.70
2023-03-22T11:19:41.233Z,17.70
2023-03-22T11:22:41.289Z,17.80
2023-03-22T11:25:29.223Z,17.80
2023-03-22T11:28:18.946Z,17.80
2023-03-22T11:31:19.520Z,17.80
2023-03-22T11:33:58.519Z,17.80
2023-03-22T11:36:26.960Z,17.90
2023-03-22T11:39:07.918Z,17.90
2023-03-22T11:41:40.444Z,18.00
2023-03-22T11:44:12.762Z,18.00
2023-03-22T11:46:48.665Z,18.10
2023-03-22T11:49:17.819Z,18.10
2023-03-22T11:51:45.296Z,18.20
2023-03-22T11:54:31.960Z,18.20
2023-03-22T11:57:03.624Z,18.30
2023-03-22T11:59:37.890Z,18.30
2023-03-22T12:02:26.828Z,18.40
2023-03-22T12:05:25.101Z,18.50
2023-03-22T12:08:09.355Z,18.40
2023-03-22T12:10:42.775Z,18.40
2023-03-22T12:13:46.185Z,18.50
2023-03-22T12:16:17.665Z,18.50
2023-03-22T12:19:02.380Z,18.60
2023-03-22T12:21:30.074Z,18.50
2023-03-22T12:24:01.351Z,18.50
2023-03-22T12:26:30.947Z,18.60
2023-03-22T12:29:05.872Z,18.50
2023-03-22T12:31:38.397Z,18.60
2023-03-22T12:34:20.384Z,18.60
2023-03-22T12:36:51.487Z,18.60
2023-03-22T12:39:27.569Z,18.70
2023-03-22T12:42:00.040Z,18.70
2023-03-22T12:44:37.774Z,18.70
2023-03-22T12:47:12.282Z,18.70
2023-03-22T12:49:41.333Z,18.80
2023-03-22T12:52:47.085Z,18.90
2023-03-22T12:55:23.968Z,19.00
2023-03-22T12:57:54.785Z,19.00
2023-03-22T13:00:28.597Z,19.10
2023-03-22T13:03:01.275Z,19.20
2023-03-22T13:05:32.487Z,19.20
2023-03-22T13:08:03.377Z,19.30
2023-03-22T13:10:34.043Z,19.30
2023-03-22T13:13:23.080Z,19.30
2023-03-22T13:15:55.876Z,19.20
2023-03-22T13:18:38.187Z,19.20
2023-03-22T13:21:29.985Z,19.30
2023-03-22T13:24:06.084Z,19.40
2023-03-22T13:26:47.276Z,19.40
2023-03-22T13:29:33.992Z,19.30
2023-03-22T13:32:04.660Z,19.40
2023-03-22T13:34:47.033Z,19.50
2023-03-22T13:37:31.842Z,19.60
2023-03-22T13:40:02.234Z,19.60
2023-03-22T13:42:38.558Z,19.70
2023-03-22T13:45:10.934Z,19.70
2023-03-22T13:47:44.783Z,19.70
2023-03-22T13:50:23.494Z,19.70
2023-03-22T13:53:01.864Z,19.70
2023-03-22T13:55:48.825Z,19.70
2023-03-22T13:58:33.041Z,19.70
2023-03-22T14:01:01.260Z,19.70
2023-03-22T14:03:32.715Z,19.70
2023-03-22T14:06:09.510Z,19.80
2023-03-22T14:08:38.049Z,19.80
2023-03-22T14:11:13.757Z,19.80
2023-03-22T14:13:46.969Z,19.80
2023-03-22T14:16:22.857Z,19.80
2023-03-22T14:18:50.361Z,19.80
2023-03-22T14:21:21.874Z,19.80
